Terminal Aerodrome Forecast
Issued by NWS

Home | Current Version | Previous Version | Text Only | Print | Product List | Glossary On
Versions: 1 2 3 4 5 6 7 8 9 10 11 12
000
FTUS42 KMLB 200531
TAFTIX
TAF
KTIX 200531Z 2006/2106 26008KT P6SM FEW015
     FM201000 34010KT P6SM SCT020 BKN060
     FM201400 03014G22KT P6SM VCSH SCT025 BKN060
     FM210000 05015KT P6SM VCSH SCT020 BKN040
      AMD NOT SKED 2006/2011=

USA.gov is the U.S. government's official web portal to all federal, state and local government web resources and services.